Time;durP1;ratioP1;P1;durP2;ratioP2;P2;SDS_P1;SDS_P2;PMS_P1;PMS_P2;Temp;Humidity;BMP_temperature;BMP_pressure;BME280_temperature;BME280_humidity;BME280_pressure;Samples;Min_cycle;Max_cycle;Signal;HPM_P1;HPM_P2
2023/10/23 00:00:12;;;;;;;4.90;1.80;;;11.90;99.90;;;;;;5074803;28;20186;-76
2023/10/23 00:02:38;;;;;;;5.40;1.67;;;11.80;99.90;;;;;;5090339;28;20569;-77
2023/10/23 00:05:05;;;;;;;8.00;2.20;;;11.80;99.90;;;;;;5095703;28;20281;-77
2023/10/23 00:07:31;;;;;;;7.83;2.17;;;11.80;99.90;;;;;;5095571;28;20610;-76
2023/10/23 00:09:56;;;;;;;3.40;1.63;;;11.80;99.90;;;;;;5094135;28;20214;-76
2023/10/23 00:12:22;;;;;;;4.67;2.10;;;11.80;99.90;;;;;;5095905;28;20239;-76
2023/10/23 00:14:48;;;;;;;7.87;2.13;;;11.90;99.90;;;;;;5095476;28;20240;-76
2023/10/23 00:17:13;;;;;;;5.33;1.87;;;11.70;99.90;;;;;;5095393;28;20174;-76
2023/10/23 00:19:39;;;;;;;5.20;1.77;;;11.70;99.90;;;;;;5094138;28;20171;-76
2023/10/23 00:22:04;;;;;;;7.97;1.63;;;11.70;99.90;;;;;;5093659;28;20370;-76
2023/10/23 00:24:30;;;;;;;5.83;1.77;;;11.60;99.90;;;;;;5093617;28;20198;-77
2023/10/23 00:26:56;;;;;;;11.10;2.97;;;11.60;99.90;;;;;;5094076;28;20174;-77
2023/10/23 00:29:21;;;;;;;5.83;1.77;;;11.60;99.90;;;;;;5093269;28;20668;-77
2023/10/23 00:31:47;;;;;;;4.23;2.00;;;11.60;99.90;;;;;;5085238;28;20183;-77
2023/10/23 00:34:12;;;;;;;6.10;1.80;;;11.50;99.90;;;;;;5073104;28;20257;-77
2023/10/23 00:36:38;;;;;;;2.57;1.80;;;11.40;99.90;;;;;;5074340;28;20528;-77
2023/10/23 00:39:03;;;;;;;4.77;1.70;;;11.30;99.90;;;;;;5074266;28;20170;-77
2023/10/23 00:41:29;;;;;;;4.87;1.67;;;11.30;99.90;;;;;;5072355;28;20189;-76
2023/10/23 00:43:54;;;;;;;4.37;1.60;;;11.20;99.90;;;;;;5069012;28;20208;-77
2023/10/23 00:46:20;;;;;;;6.93;1.63;;;11.10;99.90;;;;;;5052920;28;20180;-77
2023/10/23 00:48:47;;;;;;;5.73;1.80;;;11.10;99.90;;;;;;5053039;28;20194;-77
2023/10/23 00:51:16;;;;;;;5.47;1.63;;;11.10;99.90;;;;;;5059354;28;20191;-77
2023/10/23 00:53:43;;;;;;;5.23;1.90;;;11.00;99.90;;;;;;5093982;28;20212;-78
2023/10/23 00:56:10;;;;;;;5.33;2.20;;;11.00;99.90;;;;;;5094385;28;20511;-77
2023/10/23 00:58:40;;;;;;;4.83;1.40;;;10.90;99.90;;;;;;5092918;28;20231;-77
2023/10/23 01:01:11;;;;;;;4.97;1.57;;;10.90;99.90;;;;;;5090373;28;20181;-77
2023/10/23 01:03:41;;;;;;;4.93;1.63;;;10.90;99.90;;;;;;5072555;28;20343;-77
2023/10/23 01:06:07;;;;;;;4.50;1.80;;;10.80;99.90;;;;;;5073925;28;20171;-76
2023/10/23 01:08:33;;;;;;;6.80;2.07;;;10.70;99.90;;;;;;5074265;28;20175;-77
2023/10/23 01:10:59;;;;;;;6.33;1.80;;;10.70;99.90;;;;;;5072526;28;20197;-77
2023/10/23 01:13:26;;;;;;;5.63;1.73;;;10.70;99.90;;;;;;5073361;28;20305;-76
2023/10/23 01:15:52;;;;;;;4.70;2.03;;;10.60;99.90;;;;;;5072331;28;20555;-78
2023/10/23 01:18:18;;;;;;;5.07;2.07;;;10.60;99.90;;;;;;5072612;28;20187;-77
2023/10/23 01:20:44;;;;;;;5.80;1.67;;;10.50;99.90;;;;;;5072420;28;20229;-77
2023/10/23 01:23:10;;;;;;;4.50;1.83;;;10.50;99.90;;;;;;5073469;28;20201;-77
2023/10/23 01:25:36;;;;;;;8.53;1.67;;;10.40;99.90;;;;;;5072220;28;20265;-77
2023/10/23 01:28:02;;;;;;;4.27;1.87;;;10.40;99.90;;;;;;5072480;28;20270;-77
2023/10/23 01:30:28;;;;;;;4.50;1.73;;;10.40;99.90;;;;;;5070318;28;20701;-77
2023/10/23 01:32:54;;;;;;;6.00;1.73;;;10.30;99.90;;;;;;5072963;28;20211;-77
2023/10/23 01:35:20;;;;;;;6.07;1.77;;;10.20;99.90;;;;;;5073104;28;20198;-77
2023/10/23 01:37:47;;;;;;;3.97;1.50;;;10.20;99.90;;;;;;5072992;28;20228;-77
2023/10/23 01:40:13;;;;;;;12.57;2.13;;;10.10;99.90;;;;;;5083411;28;20186;-77
2023/10/23 01:42:39;;;;;;;4.50;1.60;;;10.10;99.90;;;;;;5093556;28;20176;-77
2023/10/23 01:45:05;;;;;;;4.00;1.60;;;10.10;99.90;;;;;;5091797;28;20243;-77
2023/10/23 01:47:30;;;;;;;3.73;1.70;;;10.00;99.90;;;;;;5092126;28;20170;-77
2023/10/23 01:49:56;;;;;;;5.60;1.50;;;10.00;99.90;;;;;;5081539;28;20209;-77
2023/10/23 01:52:21;;;;;;;4.93;1.57;;;9.90;99.90;;;;;;5072510;28;20171;-76
2023/10/23 01:54:50;;;;;;;6.87;1.73;;;9.90;99.90;;;;;;5071414;28;20650;-78
2023/10/23 01:57:16;;;;;;;5.87;1.90;;;9.90;99.90;;;;;;5073129;28;20277;-77
2023/10/23 01:59:41;;;;;;;9.13;1.93;;;9.90;99.90;;;;;;5080035;28;20526;-77
2023/10/23 02:02:07;;;;;;;3.30;1.40;;;9.90;99.90;;;;;;5091787;28;20676;-77
2023/10/23 02:04:38;;;;;;;6.20;1.60;;;9.90;99.90;;;;;;5091417;28;20209;-77
2023/10/23 02:07:04;;;;;;;9.50;1.37;;;9.90;99.90;;;;;;5093112;28;20241;-77
2023/10/23 02:09:29;;;;;;;5.53;1.23;;;9.80;99.90;;;;;;5085693;28;20727;-77
2023/10/23 02:11:55;;;;;;;4.07;1.57;;;9.80;99.90;;;;;;5071390;28;20182;-77
2023/10/23 02:14:20;;;;;;;7.80;1.87;;;9.80;99.90;;;;;;5071322;28;20216;-77
2023/10/23 02:16:46;;;;;;;5.77;1.73;;;9.80;99.90;;;;;;5071420;28;20175;-77
2023/10/23 02:19:11;;;;;;;5.07;1.83;;;9.70;99.90;;;;;;5074990;28;20174;-77
2023/10/23 02:21:37;;;;;;;5.00;1.30;;;9.70;99.90;;;;;;5091779;28;20573;-77
2023/10/23 02:24:03;;;;;;;7.07;1.97;;;9.60;99.90;;;;;;5092582;28;20641;-77
2023/10/23 02:26:29;;;;;;;2.17;1.50;;;9.60;99.90;;;;;;5093216;28;20289;-77
2023/10/23 02:28:55;;;;;;;9.50;1.90;;;9.60;99.90;;;;;;5091330;28;20186;-78
2023/10/23 02:31:22;;;;;;;4.23;1.80;;;9.50;99.90;;;;;;5092851;28;20184;-77
2023/10/23 02:33:48;;;;;;;3.73;1.47;;;9.50;99.90;;;;;;5091494;28;20201;-77
2023/10/23 02:36:15;;;;;;;4.57;1.57;;;9.50;99.90;;;;;;5091272;28;20174;-77
2023/10/23 02:38:41;;;;;;;3.17;1.50;;;9.40;99.90;;;;;;5092702;28;20671;-77
2023/10/23 02:41:06;;;;;;;15.77;3.20;;;9.40;99.90;;;;;;5075202;28;20178;-77
2023/10/23 02:43:32;;;;;;;5.77;1.57;;;9.40;99.90;;;;;;5092996;28;20202;-77
2023/10/23 02:46:06;;;;;;;8.07;1.60;;;9.40;99.90;;;;;;5091153;28;20178;-77
2023/10/23 02:48:32;;;;;;;7.17;1.73;;;9.40;99.90;;;;;;5091123;28;20188;-77
2023/10/23 02:50:58;;;;;;;5.53;1.80;;;9.40;99.90;;;;;;5091600;28;20215;-77
2023/10/23 02:53:24;;;;;;;6.60;1.43;;;9.40;99.90;;;;;;5074529;28;20218;-77
2023/10/23 02:55:50;;;;;;;12.50;2.23;;;9.40;99.90;;;;;;5074505;28;20202;-77
2023/10/23 02:58:17;;;;;;;3.80;1.53;;;9.40;99.90;;;;;;5074692;28;20179;-77
2023/10/23 03:00:43;;;;;;;5.20;1.67;;;9.40;99.90;;;;;;5073996;28;20182;-77
2023/10/23 03:03:12;;;;;;;7.90;2.00;;;9.30;99.90;;;;;;5094151;28;20214;-77
2023/10/23 03:05:38;;;;;;;5.93;1.60;;;9.30;99.90;;;;;;5080497;28;20554;-77
2023/10/23 03:08:04;;;;;;;3.53;1.50;;;9.40;99.90;;;;;;5075777;28;20190;-77
2023/10/23 03:10:31;;;;;;;8.00;1.73;;;9.20;99.90;;;;;;5074726;28;20175;-78
2023/10/23 03:12:57;;;;;;;5.30;1.50;;;9.20;99.90;;;;;;5076317;28;20681;-77
2023/10/23 03:15:22;;;;;;;6.93;1.80;;;9.20;99.90;;;;;;5086539;28;20181;-77
2023/10/23 03:17:48;;;;;;;6.23;1.70;;;9.10;99.90;;;;;;5096589;28;20549;-77
2023/10/23 03:20:14;;;;;;;8.53;1.70;;;9.00;99.90;;;;;;5096030;28;20178;-77
2023/10/23 03:22:39;;;;;;;4.37;1.50;;;8.90;99.90;;;;;;5095596;28;20181;-77
2023/10/23 03:25:06;;;;;;;6.40;1.53;;;8.90;99.90;;;;;;5094359;28;20621;-77
2023/10/23 03:27:32;;;;;;;3.20;1.60;;;8.80;99.90;;;;;;5094348;28;20273;-77
2023/10/23 03:29:58;;;;;;;6.77;2.00;;;9.00;99.90;;;;;;5094412;28;20622;-77
2023/10/23 03:32:23;;;;;;;6.93;1.90;;;8.90;99.90;;;;;;5095651;28;20186;-76
2023/10/23 03:34:49;;;;;;;5.27;1.53;;;8.80;99.90;;;;;;5093890;28;20228;-77
2023/10/23 03:37:15;;;;;;;5.27;2.57;;;8.90;99.90;;;;;;5095705;28;20223;-76
2023/10/23 03:39:40;;;;;;;3.43;1.50;;;8.80;99.90;;;;;;5095388;28;20171;-77
2023/10/23 03:42:06;;;;;;;3.50;1.83;;;8.80;99.90;;;;;;5095488;28;20177;-77
2023/10/23 03:44:32;;;;;;;5.00;1.83;;;8.80;99.90;;;;;;5091749;28;20281;-77
2023/10/23 03:46:57;;;;;;;4.27;1.77;;;8.70;99.90;;;;;;5075354;28;20182;-77
2023/10/23 03:49:23;;;;;;;3.83;1.80;;;8.70;99.90;;;;;;5073941;28;20301;-77
2023/10/23 03:51:49;;;;;;;8.07;1.80;;;8.60;99.90;;;;;;5075139;28;20581;-77
2023/10/23 03:54:15;;;;;;;9.90;2.00;;;8.60;99.90;;;;;;5074969;28;20199;-77
2023/10/23 03:56:40;;;;;;;4.23;1.90;;;8.60;99.90;;;;;;5093617;28;20178;-77
2023/10/23 03:59:06;;;;;;;4.83;1.70;;;8.60;99.90;;;;;;5094024;28;20610;-77
2023/10/23 04:01:31;;;;;;;2.43;1.50;;;8.60;99.90;;;;;;5095275;28;20169;-77
2023/10/23 04:03:57;;;;;;;8.70;1.93;;;8.70;99.90;;;;;;5093700;28;20186;-77
2023/10/23 04:06:22;;;;;;;9.43;1.90;;;8.60;99.90;;;;;;5075668;28;20213;-77
2023/10/23 04:08:52;;;;;;;2.53;1.50;;;8.60;99.90;;;;;;5075000;28;20264;-77
2023/10/23 04:11:18;;;;;;;3.60;1.83;;;8.60;99.90;;;;;;5075176;28;20305;-77
2023/10/23 04:13:43;;;;;;;4.73;1.77;;;8.50;99.90;;;;;;5073556;28;20294;-77
2023/10/23 04:16:09;;;;;;;6.13;1.80;;;8.50;99.90;;;;;;5089007;28;20201;-77
2023/10/23 04:18:34;;;;;;;4.50;1.70;;;8.50;99.90;;;;;;5095664;28;20178;-77
2023/10/23 04:21:06;;;;;;;3.87;1.60;;;8.50;99.90;;;;;;5094426;28;20177;-77
2023/10/23 04:23:32;;;;;;;2.77;1.60;;;8.50;99.90;;;;;;5095561;28;20190;-76
2023/10/23 04:25:58;;;;;;;3.00;1.93;;;8.40;99.90;;;;;;5094657;28;20204;-77
2023/10/23 04:28:24;;;;;;;2.90;1.70;;;8.40;99.90;;;;;;5095789;28;20272;-77
2023/10/23 04:30:50;;;;;;;8.87;1.80;;;8.40;99.90;;;;;;5095519;28;20246;-77
2023/10/23 04:33:22;;;;;;;3.27;1.90;;;8.40;99.90;;;;;;5096483;28;20693;-77
2023/10/23 04:35:55;;;;;;;5.70;1.97;;;8.40;99.90;;;;;;5094439;28;20525;-77
2023/10/23 04:38:21;;;;;;;4.57;1.80;;;8.50;99.90;;;;;;5096685;28;20189;-77
2023/10/23 04:40:48;;;;;;;3.33;1.93;;;8.50;99.90;;;;;;5095316;28;20260;-77
2023/10/23 04:43:13;;;;;;;5.10;1.90;;;8.50;99.90;;;;;;5094230;28;20186;-76
2023/10/23 04:45:40;;;;;;;4.13;1.77;;;8.50;99.90;;;;;;5092828;28;20239;-77
2023/10/23 04:48:06;;;;;;;8.03;1.80;;;8.50;99.90;;;;;;5094203;28;20189;-77
2023/10/23 04:50:39;;;;;;;5.60;1.77;;;8.40;99.90;;;;;;5091721;28;20328;-77
2023/10/23 04:53:06;;;;;;;4.00;2.37;;;8.40;99.90;;;;;;5093916;28;20209;-76
2023/10/23 04:55:33;;;;;;;4.17;1.90;;;8.50;99.90;;;;;;5092240;28;20178;-76
2023/10/23 04:58:00;;;;;;;3.83;2.00;;;8.40;99.90;;;;;;5092805;28;20170;-76
2023/10/23 05:00:26;;;;;;;3.70;1.70;;;8.40;99.90;;;;;;5093617;28;20166;-77
2023/10/23 05:02:51;;;;;;;2.80;1.80;;;8.40;99.90;;;;;;5092139;28;20621;-76
2023/10/23 05:05:17;;;;;;;3.30;1.67;;;8.40;99.90;;;;;;5093495;28;20174;-77
2023/10/23 05:07:42;;;;;;;4.80;1.67;;;8.40;99.90;;;;;;5093779;28;20249;-77
2023/10/23 05:10:09;;;;;;;3.17;1.77;;;8.40;99.90;;;;;;5093371;28;20174;-76
2023/10/23 05:12:42;;;;;;;2.27;1.70;;;8.40;99.90;;;;;;5092709;28;20190;-77
2023/10/23 05:15:10;;;;;;;4.73;2.10;;;8.40;99.90;;;;;;5091982;28;20174;-77
2023/10/23 05:17:36;;;;;;;6.80;1.67;;;8.40;99.90;;;;;;5093209;28;20178;-76
2023/10/23 05:20:01;;;;;;;4.40;2.00;;;8.40;99.90;;;;;;5093225;28;20223;-76
2023/10/23 05:22:27;;;;;;;5.07;2.13;;;8.40;99.90;;;;;;5093107;28;20171;-76
2023/10/23 05:24:53;;;;;;;5.17;2.10;;;8.40;99.90;;;;;;5091951;28;20185;-77
2023/10/23 05:27:18;;;;;;;5.10;2.07;;;8.40;99.90;;;;;;5093514;28;20249;-77
2023/10/23 05:29:44;;;;;;;3.73;2.37;;;8.40;99.90;;;;;;5094555;28;20194;-77
2023/10/23 05:32:09;;;;;;;6.90;2.13;;;8.40;99.90;;;;;;5094974;28;20183;-77
2023/10/23 05:34:35;;;;;;;8.00;2.43;;;8.40;99.90;;;;;;5093988;28;20683;-77
2023/10/23 05:37:01;;;;;;;8.00;2.60;;;8.40;99.90;;;;;;5090380;28;20178;-77
2023/10/23 05:39:27;;;;;;;2.77;2.30;;;8.40;99.90;;;;;;5093241;28;20178;-77
2023/10/23 05:41:53;;;;;;;7.87;2.60;;;8.40;99.90;;;;;;5089646;28;20185;-77
2023/10/23 05:44:18;;;;;;;5.90;2.90;;;8.50;99.90;;;;;;5093151;28;20202;-76
2023/10/23 05:46:44;;;;;;;4.80;2.30;;;8.40;99.90;;;;;;5091922;28;20209;-77
2023/10/23 05:49:09;;;;;;;4.37;2.33;;;8.40;99.90;;;;;;5093298;28;20182;-77
2023/10/23 05:51:35;;;;;;;4.13;2.50;;;8.40;99.90;;;;;;5079411;28;20190;-76
2023/10/23 05:54:02;;;;;;;10.27;2.70;;;8.50;99.90;;;;;;5071263;28;20242;-77
2023/10/23 05:56:28;;;;;;;4.67;2.40;;;8.50;99.90;;;;;;5072818;28;20163;-77
2023/10/23 05:58:53;;;;;;;5.50;2.40;;;8.50;99.90;;;;;;5071265;28;20657;-77
2023/10/23 06:01:19;;;;;;;4.23;2.53;;;8.40;99.90;;;;;;5080152;28;20200;-76
2023/10/23 06:03:45;;;;;;;4.37;1.97;;;8.40;99.90;;;;;;5091509;28;20244;-77
2023/10/23 06:06:12;;;;;;;4.23;2.10;;;8.40;99.90;;;;;;5087917;28;20185;-77
2023/10/23 06:08:38;;;;;;;5.20;2.60;;;8.40;99.90;;;;;;5092724;28;20170;-77
2023/10/23 06:11:07;;;;;;;7.57;3.47;;;8.40;99.90;;;;;;5092778;28;20178;-77
2023/10/23 06:13:33;;;;;;;6.40;3.03;;;8.40;99.90;;;;;;5091130;28;20214;-77
2023/10/23 06:16:02;;;;;;;5.80;2.90;;;8.40;99.90;;;;;;5092765;28;20177;-77
2023/10/23 06:18:28;;;;;;;5.20;2.87;;;8.30;99.90;;;;;;5071978;28;20179;-77
2023/10/23 06:21:00;;;;;;;7.37;3.33;;;8.30;99.90;;;;;;5071208;28;20266;-77
2023/10/23 06:23:25;;;;;;;8.53;3.13;;;8.40;99.90;;;;;;5088413;28;20662;-77
2023/10/23 06:25:57;;;;;;;6.57;3.20;;;8.40;99.90;;;;;;5095837;28;20212;-77
2023/10/23 06:28:22;;;;;;;4.30;2.33;;;8.30;99.90;;;;;;5095627;28;20219;-76
2023/10/23 06:30:48;;;;;;;8.20;2.70;;;8.30;99.90;;;;;;5096335;28;20208;-77
2023/10/23 06:33:13;;;;;;;7.50;2.67;;;8.30;99.90;;;;;;5095047;28;20221;-77
2023/10/23 06:35:39;;;;;;;4.70;2.70;;;8.30;99.90;;;;;;5095538;28;20263;-77
2023/10/23 06:38:04;;;;;;;4.63;2.80;;;8.30;99.90;;;;;;5097378;28;20249;-77
2023/10/23 06:40:30;;;;;;;4.83;2.37;;;8.30;99.90;;;;;;5097248;28;20185;-77
2023/10/23 06:42:55;;;;;;;5.73;2.57;;;8.30;99.90;;;;;;5094968;28;20217;-77
2023/10/23 06:45:21;;;;;;;5.37;2.73;;;8.30;99.90;;;;;;5096849;28;20174;-77
2023/10/23 06:47:49;;;;;;;8.77;3.00;;;8.30;99.90;;;;;;5096489;28;20538;-77
2023/10/23 06:50:16;;;;;;;5.30;2.87;;;8.30;99.90;;;;;;5095248;28;20177;-77
2023/10/23 06:52:44;;;;;;;8.43;2.90;;;8.30;99.90;;;;;;5094835;28;20234;-77
2023/10/23 06:55:10;;;;;;;8.67;3.30;;;8.30;99.90;;;;;;5095497;28;20174;-77
2023/10/23 06:57:36;;;;;;;6.73;2.90;;;8.30;99.90;;;;;;5095033;28;20564;-77
2023/10/23 07:00:03;;;;;;;5.77;2.77;;;8.30;99.90;;;;;;5094805;28;20181;-77
2023/10/23 07:02:28;;;;;;;7.80;2.50;;;8.30;99.90;;;;;;5093365;28;20273;-76
2023/10/23 07:04:54;;;;;;;6.00;3.17;;;8.30;99.90;;;;;;5094832;28;20212;-77
2023/10/23 07:07:20;;;;;;;8.77;2.97;;;8.30;99.90;;;;;;5094999;28;20637;-77
2023/10/23 07:09:45;;;;;;;5.93;2.80;;;8.30;99.90;;;;;;5096471;28;20181;-77
2023/10/23 07:12:12;;;;;;;6.43;2.53;;;8.30;99.90;;;;;;5088497;28;20175;-77
2023/10/23 07:14:38;;;;;;;5.07;3.17;;;8.30;99.90;;;;;;5074320;28;20609;-76
2023/10/23 07:17:03;;;;;;;4.80;3.10;;;8.30;99.90;;;;;;5076017;28;20232;-77
2023/10/23 07:19:29;;;;;;;7.23;2.30;;;8.30;99.90;;;;;;5075955;28;20168;-77
2023/10/23 07:21:54;;;;;;;4.83;2.40;;;8.30;99.90;;;;;;5073734;28;20218;-77
2023/10/23 07:24:20;;;;;;;2.90;2.57;;;8.30;99.90;;;;;;5075475;28;20201;-77
2023/10/23 07:26:45;;;;;;;4.13;2.50;;;8.40;99.90;;;;;;5075860;28;20175;-77
2023/10/23 07:29:11;;;;;;;3.37;2.23;;;8.40;99.90;;;;;;5074176;28;20190;-77
2023/10/23 07:31:37;;;;;;;5.67;3.17;;;8.50;99.90;;;;;;5087222;28;20182;-77
2023/10/23 07:34:03;;;;;;;4.67;2.70;;;8.50;99.90;;;;;;5095560;28;20209;-77
2023/10/23 07:36:29;;;;;;;4.80;2.80;;;8.50;99.90;;;;;;5093680;28;20526;-76
2023/10/23 07:38:55;;;;;;;5.57;2.90;;;8.60;99.90;;;;;;5095551;28;20178;-77
2023/10/23 07:41:21;;;;;;;6.33;3.13;;;8.60;99.90;;;;;;5093881;28;20181;-77
2023/10/23 07:43:46;;;;;;;4.57;3.20;;;8.70;99.90;;;;;;5095428;28;20623;-77
2023/10/23 07:46:12;;;;;;;5.43;2.90;;;8.70;99.90;;;;;;5093911;28;20178;-77
2023/10/23 07:48:39;;;;;;;5.17;3.00;;;8.70;99.90;;;;;;5095250;28;20249;-76
2023/10/23 07:51:04;;;;;;;5.50;2.67;;;8.80;99.90;;;;;;5093675;28;20224;-77
2023/10/23 07:53:35;;;;;;;8.57;2.83;;;8.90;99.90;;;;;;5093880;28;20213;-77
2023/10/23 07:56:00;;;;;;;6.37;2.60;;;8.90;99.90;;;;;;5092397;28;20628;-77
2023/10/23 07:58:26;;;;;;;8.63;3.00;;;9.00;99.90;;;;;;5095118;28;20175;-77
2023/10/23 08:01:02;;;;;;;10.70;4.97;;;9.00;99.90;;;;;;5094203;28;20175;-78
2023/10/23 08:03:27;;;;;;;8.30;5.23;;;9.10;99.90;;;;;;5073620;28;20235;-77
2023/10/23 08:05:53;;;;;;;6.93;4.10;;;9.20;99.90;;;;;;5092076;28;20593;-77
2023/10/23 08:08:18;;;;;;;6.93;3.90;;;9.30;99.90;;;;;;5094958;28;20198;-77
2023/10/23 08:10:44;;;;;;;10.60;4.13;;;9.40;99.90;;;;;;5093431;28;20182;-77
2023/10/23 08:13:09;;;;;;;11.67;4.30;;;9.40;99.90;;;;;;5094733;28;20202;-77
2023/10/23 08:15:35;;;;;;;9.53;3.77;;;9.50;99.90;;;;;;5091158;28;20182;-76
2023/10/23 08:18:01;;;;;;;7.73;4.17;;;9.60;99.90;;;;;;5093327;28;20481;-77
2023/10/23 08:20:26;;;;;;;5.90;3.70;;;9.70;99.90;;;;;;5094909;28;20643;-77
2023/10/23 08:22:52;;;;;;;8.20;4.10;;;9.70;99.90;;;;;;5093338;28;20271;-77
2023/10/23 08:25:17;;;;;;;6.00;3.60;;;9.80;99.90;;;;;;5085204;28;20178;-77
2023/10/23 08:27:43;;;;;;;8.00;4.13;;;9.90;99.90;;;;;;5074864;28;20194;-77
2023/10/23 08:30:10;;;;;;;8.63;4.03;;;10.00;99.90;;;;;;5072992;28;20197;-77
2023/10/23 08:32:35;;;;;;;6.23;3.70;;;10.10;99.90;;;;;;5074167;28;20185;-76
2023/10/23 08:35:02;;;;;;;6.73;3.93;;;10.10;99.90;;;;;;5079456;28;20178;-76
2023/10/23 08:37:28;;;;;;;10.73;4.90;;;10.20;99.90;;;;;;5093409;28;20178;-76
2023/10/23 08:39:54;;;;;;;8.03;3.73;;;10.20;99.90;;;;;;5094609;28;20193;-77
2023/10/23 08:42:21;;;;;;;7.90;4.13;;;10.30;99.90;;;;;;5073785;28;20183;-77
2023/10/23 08:44:48;;;;;;;9.23;4.13;;;10.40;99.90;;;;;;5052751;28;20207;-77
2023/10/23 08:47:14;;;;;;;9.87;3.70;;;10.50;99.90;;;;;;5053229;28;20175;-77
2023/10/23 08:49:40;;;;;;;6.67;3.80;;;10.50;99.90;;;;;;5069123;28;20697;-77
2023/10/23 08:52:10;;;;;;;9.40;3.70;;;10.60;99.90;;;;;;5094313;28;20571;-76
2023/10/23 08:54:37;;;;;;;6.87;3.60;;;10.70;99.90;;;;;;5094048;28;20209;-77
2023/10/23 08:57:03;;;;;;;9.27;4.00;;;10.70;99.90;;;;;;5092921;28;20610;-77
2023/10/23 08:59:29;;;;;;;7.30;3.53;;;10.80;99.90;;;;;;5094122;28;20174;-77
2023/10/23 09:01:55;;;;;;;5.47;3.30;;;10.90;99.90;;;;;;5091225;28;20715;-76
2023/10/23 09:04:21;;;;;;;8.07;3.40;;;10.90;99.90;;;;;;5094124;28;20205;-77
2023/10/23 09:06:47;;;;;;;7.67;3.23;;;11.00;99.90;;;;;;5089416;28;20262;-77
2023/10/23 09:09:13;;;;;;;6.30;3.90;;;11.00;99.90;;;;;;5094142;28;20171;-77
2023/10/23 09:11:46;;;;;;;10.20;3.43;;;11.10;99.90;;;;;;5094026;28;20183;-76
2023/10/23 09:14:24;;;;;;;5.67;2.73;;;11.10;99.90;;;;;;5093762;28;20213;-77
2023/10/23 09:16:51;;;;;;;5.10;2.77;;;11.20;99.90;;;;;;5089040;28;20185;-77
2023/10/23 09:19:36;;;;;;;5.90;2.90;;;11.20;99.90;;;;;;5093894;28;20167;-77
2023/10/23 09:22:10;;;;;;;6.50;2.50;;;11.30;99.90;;;;;;5092349;28;20287;-77
2023/10/23 09:24:36;;;;;;;9.47;2.50;;;11.30;99.90;;;;;;5092551;28;20202;-77
2023/10/23 09:27:03;;;;;;;9.00;2.80;;;11.40;99.90;;;;;;5092944;28;20261;-77
2023/10/23 09:29:28;;;;;;;9.57;2.87;;;11.40;99.90;;;;;;5093416;28;20190;-77
2023/10/23 09:31:57;;;;;;;4.93;2.80;;;11.50;99.90;;;;;;5093922;28;20182;-77
2023/10/23 09:34:24;;;;;;;5.20;2.50;;;11.50;99.90;;;;;;5093748;28;20233;-77
2023/10/23 09:36:51;;;;;;;10.70;2.67;;;11.60;99.90;;;;;;5090938;28;20187;-77
2023/10/23 09:39:18;;;;;;;6.63;2.23;;;11.60;99.90;;;;;;5080294;28;20658;-77
2023/10/23 09:41:46;;;;;;;5.93;2.07;;;11.70;99.90;;;;;;5078012;28;20202;-77
2023/10/23 09:44:13;;;;;;;8.60;3.00;;;11.80;99.90;;;;;;5093463;28;20190;-77
2023/10/23 09:46:41;;;;;;;7.60;2.20;;;11.80;99.90;;;;;;5093594;28;20178;-77
2023/10/23 09:49:07;;;;;;;7.50;2.50;;;11.90;99.90;;;;;;5092143;28;20174;-77
2023/10/23 09:51:40;;;;;;;9.27;2.57;;;12.00;99.90;;;;;;5090866;28;20185;-77
2023/10/23 09:54:17;;;;;;;5.93;2.07;;;12.00;99.90;;;;;;5093707;28;20570;-77
2023/10/23 09:56:53;;;;;;;4.60;2.30;;;12.10;99.90;;;;;;5092177;28;20200;-77
2023/10/23 09:59:34;;;;;;;6.00;2.63;;;12.20;99.90;;;;;;5073393;28;20560;-77
2023/10/23 10:02:00;;;;;;;8.47;2.87;;;12.20;99.90;;;;;;5071812;28;20170;-77
2023/10/23 10:04:31;;;;;;;7.10;2.90;;;12.30;99.90;;;;;;5084629;28;20210;-77
2023/10/23 10:07:04;;;;;;;9.50;3.07;;;12.30;99.90;;;;;;5090469;28;20190;-77
2023/10/23 10:09:31;;;;;;;6.70;3.03;;;12.40;99.90;;;;;;5093402;28;20595;-77
2023/10/23 10:11:58;;;;;;;8.93;3.23;;;12.50;99.90;;;;;;5093575;28;20224;-77
2023/10/23 10:14:26;;;;;;;11.50;3.00;;;12.50;99.90;;;;;;5093548;28;20213;-77
2023/10/23 10:16:56;;;;;;;7.83;3.00;;;12.60;99.90;;;;;;5078862;28;20243;-77
2023/10/23 10:19:24;;;;;;;7.37;2.93;;;12.60;99.90;;;;;;5072806;28;20181;-77
2023/10/23 10:21:52;;;;;;;9.03;3.23;;;12.70;99.90;;;;;;5072905;28;20583;-77
2023/10/23 10:24:20;;;;;;;5.17;2.50;;;12.70;99.90;;;;;;5072669;28;20191;-77
2023/10/23 10:26:47;;;;;;;8.43;2.30;;;12.80;99.90;;;;;;5082938;28;20645;-76
2023/10/23 10:29:13;;;;;;;6.70;2.53;;;12.80;99.90;;;;;;5093172;28;20194;-77
2023/10/23 10:32:09;;;;;;;7.33;2.47;;;12.90;99.90;;;;;;5091718;28;20174;-77
2023/10/23 10:34:36;;;;;;;5.93;2.03;;;12.90;99.90;;;;;;5091618;28;20217;-77
2023/10/23 10:37:04;;;;;;;7.63;2.70;;;13.00;99.90;;;;;;5091573;28;20327;-77
2023/10/23 10:39:50;;;;;;;7.70;2.73;;;13.10;99.90;;;;;;5091550;28;20718;-77
2023/10/23 10:42:21;;;;;;;6.67;3.03;;;13.10;99.90;;;;;;5091697;28;20264;-77
2023/10/23 10:45:13;;;;;;;8.27;2.37;;;13.20;99.90;;;;;;5093437;28;20186;-76
2023/10/23 10:47:43;;;;;;;6.73;2.40;;;13.20;99.90;;;;;;5091365;28;20182;-77
2023/10/23 10:50:12;;;;;;;6.50;2.50;;;13.30;99.90;;;;;;5091739;28;20174;-77
2023/10/23 10:52:43;;;;;;;6.87;2.57;;;13.30;99.90;;;;;;5092676;28;20182;-77
2023/10/23 10:55:11;;;;;;;6.33;2.73;;;13.40;99.90;;;;;;5092889;28;20161;-77
2023/10/23 10:57:40;;;;;;;5.87;2.70;;;13.50;99.90;;;;;;5089852;28;20182;-77
2023/10/23 11:00:06;;;;;;;5.13;2.20;;;13.50;99.90;;;;;;5091552;28;20173;-77
2023/10/23 11:02:32;;;;;;;6.60;2.60;;;13.60;99.90;;;;;;5092791;28;20200;-77
2023/10/23 11:04:58;;;;;;;8.03;2.73;;;13.60;99.90;;;;;;5091722;28;20167;-77
2023/10/23 11:07:25;;;;;;;5.10;2.20;;;13.70;99.90;;;;;;5075898;28;20183;-77
2023/10/23 11:09:51;;;;;;;7.67;2.50;;;13.80;99.90;;;;;;5073670;28;20163;-77
2023/10/23 11:12:20;;;;;;;6.83;2.67;;;13.80;99.90;;;;;;5074813;28;20175;-77
2023/10/23 11:14:47;;;;;;;5.77;2.77;;;13.90;99.90;;;;;;5076922;28;20701;-77
2023/10/23 11:17:13;;;;;;;5.83;2.67;;;13.90;99.90;;;;;;5075828;28;20627;-76
2023/10/23 11:19:42;;;;;;;6.13;2.90;;;13.90;99.90;;;;;;5077041;28;20159;-77
2023/10/23 11:22:13;;;;;;;6.67;2.70;;;13.90;99.90;;;;;;5076380;28;20561;-77
2023/10/23 11:24:39;;;;;;;6.83;2.77;;;13.90;99.90;;;;;;5076296;28;20190;-77
2023/10/23 11:27:05;;;;;;;5.63;2.73;;;14.00;99.90;;;;;;5087855;28;20190;-77
2023/10/23 11:29:46;;;;;;;7.33;2.50;;;14.00;99.90;;;;;;5095153;28;20217;-77
2023/10/23 11:32:13;;;;;;;6.10;2.20;;;14.10;99.90;;;;;;5096032;28;20215;-77
2023/10/23 11:34:38;;;;;;;3.97;2.43;;;14.10;99.90;;;;;;5095965;28;20206;-76
2023/10/23 11:37:06;;;;;;;6.10;2.00;;;14.10;99.90;;;;;;5093237;28;20186;-77
2023/10/23 11:39:32;;;;;;;5.80;1.80;;;14.10;99.90;;;;;;5094945;28;20227;-77
2023/10/23 11:41:59;;;;;;;3.03;1.60;;;14.20;99.90;;;;;;5094114;28;20269;-77
2023/10/23 11:44:29;;;;;;;5.40;2.00;;;14.20;99.90;;;;;;5095915;28;20228;-77
2023/10/23 11:46:57;;;;;;;5.13;2.37;;;14.20;99.90;;;;;;5096873;28;20680;-77
2023/10/23 11:49:23;;;;;;;3.53;1.70;;;14.20;99.90;;;;;;5095475;28;20174;-77
2023/10/23 11:51:49;;;;;;;5.37;1.80;;;14.20;99.90;;;;;;5093027;28;20622;-77
2023/10/23 11:54:17;;;;;;;5.80;1.73;;;14.30;99.90;;;;;;5094254;28;20210;-77
2023/10/23 11:56:44;;;;;;;4.00;1.97;;;14.30;99.90;;;;;;5095829;28;20221;-77
2023/10/23 11:59:17;;;;;;;5.47;1.90;;;14.30;99.90;;;;;;5092333;28;20186;-77
2023/10/23 12:01:42;;;;;;;3.47;1.57;;;14.30;99.90;;;;;;5092737;28;20186;-77
2023/10/23 12:04:09;;;;;;;5.77;2.47;;;14.40;99.90;;;;;;5093928;28;20190;-76
2023/10/23 12:06:35;;;;;;;7.03;1.97;;;14.40;99.90;;;;;;5091526;28;20181;-78
2023/10/23 12:09:02;;;;;;;5.73;2.03;;;14.40;99.90;;;;;;5092202;28;20265;-77
2023/10/23 12:11:28;;;;;;;3.20;2.00;;;14.40;99.90;;;;;;5094238;28;20188;-77
2023/10/23 12:13:54;;;;;;;7.57;2.20;;;14.40;99.90;;;;;;5095347;28;20657;-77
2023/10/23 12:16:20;;;;;;;3.67;1.97;;;14.40;99.90;;;;;;5092784;28;20213;-77
2023/10/23 12:18:45;;;;;;;4.80;2.00;;;14.40;99.90;;;;;;5095132;28;20166;-77
2023/10/23 12:21:12;;;;;;;3.20;1.50;;;14.40;99.90;;;;;;5094983;28;20686;-77
2023/10/23 12:23:37;;;;;;;2.70;1.63;;;14.40;99.90;;;;;;5093416;28;20203;-77
2023/10/23 12:26:03;;;;;;;4.63;1.70;;;14.40;99.90;;;;;;5092597;28;20197;-78
2023/10/23 12:28:29;;;;;;;5.90;1.73;;;14.40;99.90;;;;;;5106070;28;20550;-79
2023/10/23 12:30:54;;;;;;;2.63;1.30;;;14.50;99.90;;;;;;5106512;28;20186;-78
2023/10/23 12:33:20;;;;;;;3.80;1.70;;;14.40;99.90;;;;;;5106491;28;20568;-79
2023/10/23 12:35:46;;;;;;;3.40;1.37;;;14.40;99.90;;;;;;5100456;28;20171;-79
2023/10/23 12:38:11;;;;;;;2.90;1.30;;;14.50;99.90;;;;;;5088766;28;20183;-79
2023/10/23 12:40:41;;;;;;;3.63;1.60;;;14.50;99.90;;;;;;5091959;28;20257;-77
2023/10/23 12:43:07;;;;;;;4.47;1.57;;;14.50;99.90;;;;;;5093377;28;20198;-76
2023/10/23 12:45:32;;;;;;;5.67;1.50;;;14.50;99.90;;;;;;5095159;28;20181;-76
2023/10/23 12:47:58;;;;;;;3.07;1.40;;;14.50;99.90;;;;;;5095162;28;20181;-77
2023/10/23 12:50:23;;;;;;;7.00;1.40;;;14.50;99.90;;;;;;5093207;28;20707;-76